M I D A S
Marine Information and Data Acquisition System
Tripno 369 of the Zeeleeuw from 2002-12-13 08:24:36 to 2002-12-13 14:47:19
Back to CruiseResearch ActivitiesStationsMapUnderway DataData graphs

EquipmentUnitsComment
TimeDGPSUTC
LatitudeDGPSDM.mWGS84
LongitudeDGPSDM.mWGS84
HeadingGyrodeg 
SOGDGPSknotsSpeed over ground
COGDGPSdegCourse over ground
DepthEcho soundermeters200 kHz
Missing or incorrect values are displayed as -999
Navigation data collected by the RV Zeeleeuw from 2002-12-13 08:24:36 to 2002-12-13 14:47:19
                                                                                    Next 1000 lines
Time Latitude Longitude Heading SOG COG Depth
2002-12-13 08:24:44 51°11.187 2°44.906 250.5 13.3 247.1 12.5
2002-12-13 08:24:49 51°11.179 2°44.879 250.8 13.3 247.4 12.5
2002-12-13 08:24:53 51°11.174 2°44.857 250.2 13.3 247.2 12.5
2002-12-13 08:24:59 51°11.165 2°44.825 249.7 13.2 246.6 12.5
2002-12-13 08:25:04 51°11.158 2°44.798 249.8 13.3 246.6 12.5
2002-12-13 08:25:09 51°11.151 2°44.771 250.3 13.4 247 12.5
2002-12-13 08:25:13 51°11.144 2°44.749 249.8 13.3 246.6 12.5
2002-12-13 08:25:19 51°11.135 2°44.717 250 13.3 246.7 12.5
2002-12-13 08:25:24 51°11.128 2°44.69 250 13.4 246.7 12.4
2002-12-13 08:25:29 51°11.121 2°44.662 250.3 13.4 246.7 12.4
2002-12-13 08:25:34 51°11.114 2°44.635 250 13.4 247 12.4
2002-12-13 08:25:39 51°11.106 2°44.607 249.7 13.4 246.6 12.4
2002-12-13 08:25:43 51°11.1 2°44.586 250 13.5 247.3 12.5
2002-12-13 08:25:49 51°11.091 2°44.553 249.7 13.4 246.9 12.3
2002-12-13 08:25:54 51°11.084 2°44.527 249.2 13.4 246.2 12.4
2002-12-13 08:25:59 51°11.077 2°44.499 249.5 13.5 246.2 12.4
2002-12-13 08:26:03 51°11.071 2°44.477 249.7 13.5 246.6 12.4
2002-12-13 08:26:09 51°11.062 2°44.444 249.5 13.5 246.8 12.1
2002-12-13 08:26:14 51°11.054 2°44.417 249.7 13.4 246.7 12.2
2002-12-13 08:26:19 51°11.048 2°44.39 249.8 13.4 247.1 12.4
2002-12-13 08:26:24 51°11.04 2°44.362 250 13.5 246.8 12.4
2002-12-13 08:26:29 51°11.032 2°44.335 249.5 13.5 246.4 12.2
2002-12-13 08:26:33 51°11.026 2°44.314 249.2 13.4 246 12.3
2002-12-13 08:26:39 51°11.016 2°44.282 249.3 13.5 245.7 12.3
2002-12-13 08:26:44 51°11.01 2°44.254 249.8 13.5 246.4 12.2
2002-12-13 08:26:49 51°11.001 2°44.228 249.2 13.4 245.5 12.2
2002-12-13 08:26:54 51°10.995 2°44.2 249.8 13.4 246.9 12.2
2002-12-13 08:26:59 51°10.987 2°44.173 249.5 13.4 246.2 12.2
2002-12-13 08:27:04 51°10.979 2°44.146 249.3 13.4 246.3 12.2
2002-12-13 08:27:09 51°10.971 2°44.119 249.8 13.4 246.1 12.2
2002-12-13 08:27:13 51°10.965 2°44.097 249.8 13.4 246.2 12.2
2002-12-13 08:27:19 51°10.956 2°44.064 250.3 13.4 246.6 12.2
2002-12-13 08:27:24 51°10.949 2°44.037 250.3 13.4 247.2 12.2
2002-12-13 08:27:29 51°10.942 2°44.01 249.7 13.5 246.6 12.2
2002-12-13 08:27:34 51°10.935 2°43.982 250 13.5 246.4 12.2
2002-12-13 08:27:38 51°10.929 2°43.96 249.8 13.5 246.6 12.1
2002-12-13 08:27:44 51°10.92 2°43.928 249.7 13.4 246.5 12.1
2002-12-13 08:27:49 51°10.913 2°43.901 250.5 13.5 246.8 12.1
2002-12-13 08:27:53 51°10.907 2°43.879 249.8 13.4 246.8 12.1
2002-12-13 08:27:59 51°10.898 2°43.846 250.3 13.4 246.6 12.1
2002-12-13 08:28:04 51°10.89 2°43.819 249.7 13.4 246.8 12.1
2002-12-13 08:28:09 51°10.883 2°43.792 250.2 13.5 246.2 12.1
2002-12-13 08:28:13 51°10.877 2°43.77 250 13.5 246.2 12.1
2002-12-13 08:28:17 51°10.871 2°43.748 250 13.5 246.4 12.1
2002-12-13 08:28:24 51°10.86 2°43.71 249.5 13.4 245.7 12.1
2002-12-13 08:28:29 51°10.854 2°43.683 250 13.5 246.5 12.1
2002-12-13 08:28:33 51°10.848 2°43.661 250.3 13.5 247 12
2002-12-13 08:28:39 51°10.839 2°43.628 250 13.5 247.2 12
2002-12-13 08:28:44 51°10.831 2°43.601 250.2 13.5 246.9 11.9
2002-12-13 08:28:49 51°10.823 2°43.573 249.7 13.5 246.4 12
2002-12-13 08:28:53 51°10.816 2°43.552 249.3 13.5 245.8 12
2002-12-13 08:28:59 51°10.807 2°43.519 249.7 13.5 246.2 12
2002-12-13 08:29:04 51°10.8 2°43.491 249.5 13.5 246.5 12
2002-12-13 08:29:09 51°10.792 2°43.464 250.2 13.5 246.7 12
2002-12-13 08:29:14 51°10.785 2°43.437 249.8 13.4 247 11.9
2002-12-13 08:29:19 51°10.777 2°43.409 250 13.4 246.6 11.9
2002-12-13 08:29:23 51°10.771 2°43.387 250.3 13.5 246.7 11.9
2002-12-13 08:29:29 51°10.763 2°43.355 249.7 13.5 246.5 11.9
2002-12-13 08:29:34 51°10.755 2°43.327 250.3 13.5 246.8 11.9
2002-12-13 08:29:39 51°10.748 2°43.3 250.3 13.5 246.7 11.9
2002-12-13 08:29:44 51°10.741 2°43.272 250 13.4 247 11.7
2002-12-13 08:29:49 51°10.734 2°43.245 250.5 13.4 247.2 11.8
2002-12-13 08:29:53 51°10.728 2°43.224 250 13.4 247.3 11.8
2002-12-13 08:29:59 51°10.719 2°43.191 250 13.4 246.8 11.8
2002-12-13 08:30:04 51°10.711 2°43.164 249.3 13.4 246.4 11.8
2002-12-13 08:30:09 51°10.704 2°43.137 249.3 13.4 246.2 11.8
2002-12-13 08:30:14 51°10.696 2°43.11 249.7 13.4 246.3 11.8
2002-12-13 08:30:19 51°10.689 2°43.082 250 13.4 246.7 11.7
2002-12-13 08:30:23 51°10.683 2°43.061 250.5 13.4 247.1 11.7
2002-12-13 08:30:29 51°10.675 2°43.028 250 13.4 247.2 11.7
2002-12-13 08:30:33 51°10.669 2°43.006 250 13.3 246.8 11.7
2002-12-13 08:30:39 51°10.66 2°42.974 249.8 13.3 246.7 11.7
2002-12-13 08:30:44 51°10.653 2°42.947 249.7 13.3 246.4 11.7
2002-12-13 08:30:49 51°10.645 2°42.92 249.5 13.4 246.2 11.7
2002-12-13 08:30:54 51°10.638 2°42.893 249.2 13.3 246.1 11.7
2002-12-13 08:30:59 51°10.63 2°42.867 249.2 13.3 245.8 11.7
2002-12-13 08:31:04 51°10.622 2°42.84 249.2 13.3 246.1 11.6
2002-12-13 08:31:09 51°10.614 2°42.813 249.5 13.3 245.7 11.6
2002-12-13 08:31:14 51°10.607 2°42.786 250.2 13.4 246.3 11.6
2002-12-13 08:31:19 51°10.6 2°42.759 249.8 13.3 246.3 11.6
2002-12-13 08:31:23 51°10.594 2°42.737 249.8 13.3 246.5 11.6
2002-12-13 08:31:29 51°10.585 2°42.705 249.8 13.3 246.6 11.6
2002-12-13 08:31:34 51°10.578 2°42.678 249.5 13.3 246.3 11.5
2002-12-13 08:31:39 51°10.57 2°42.651 249.5 13.3 246.3 11.5
2002-12-13 08:31:44 51°10.563 2°42.624 250 13.4 246.3 11.5
2002-12-13 08:31:49 51°10.556 2°42.597 250.2 13.3 246.8 11.5
2002-12-13 08:31:54 51°10.548 2°42.57 250.2 13.3 246.4 11.5
2002-12-13 08:31:59 51°10.541 2°42.543 250.2 13.4 246.7 11.4
2002-12-13 08:32:03 51°10.535 2°42.522 249.7 13.3 246.3 11.5
2002-12-13 08:32:09 51°10.526 2°42.489 249.3 13.3 246.3 11.5
2002-12-13 08:32:14 51°10.518 2°42.463 249.2 13.4 245.6 11.4
2002-12-13 08:32:19 51°10.511 2°42.435 249.8 13.4 246.4 11.5
2002-12-13 08:32:24 51°10.503 2°42.409 249 13.3 245.6 11.5
2002-12-13 08:32:29 51°10.496 2°42.381 249.8 13.4 246.4 11.4
2002-12-13 08:32:34 51°10.488 2°42.355 249.7 13.3 246.2 11.4
2002-12-13 08:32:39 51°10.481 2°42.328 249.5 13.4 245.9 11.4
2002-12-13 08:32:44 51°10.473 2°42.301 249.8 13.4 246.1 11.4
2002-12-13 08:32:49 51°10.466 2°42.274 249.5 13.3 246 11.5
2002-12-13 08:32:53 51°10.46 2°42.253 250 13.3 246.4 11.5
2002-12-13 08:32:57 51°10.454 2°42.231 249.3 13.3 245.8 11.4
2002-12-13 08:33:04 51°10.443 2°42.194 249.3 13.3 246.2 11.3
2002-12-13 08:33:09 51°10.436 2°42.167 249.7 13.4 246 11.4
2002-12-13 08:33:14 51°10.429 2°42.14 249.7 13.3 246.5 11.4
2002-12-13 08:33:19 51°10.421 2°42.113 249.7 13.3 246.3 11.4
2002-12-13 08:33:24 51°10.414 2°42.086 250 13.3 246.7 11.4
2002-12-13 08:33:29 51°10.407 2°42.059 250 13.3 246.9 11.4
2002-12-13 08:33:33 51°10.4 2°42.037 250.3 13.3 246.7 11.4
2002-12-13 08:33:39 51°10.392 2°42.005 250.3 13.3 246.6 11.4
2002-12-13 08:33:44 51°10.384 2°41.978 249.8 13.3 246.3 11.4
2002-12-13 08:33:49 51°10.377 2°41.951 249.5 13.3 246.1 11.4
2002-12-13 08:33:54 51°10.369 2°41.924 249.3 13.4 245.8 11.5
2002-12-13 08:33:59 51°10.362 2°41.898 249 13.3 245.9 11.4
2002-12-13 08:34:04 51°10.354 2°41.871 249.5 13.3 246.4 11.3
2002-12-13 08:34:09 51°10.346 2°41.844 249.3 13.3 246 11.4
2002-12-13 08:34:13 51°10.341 2°41.822 250 13.3 246.6 11.4
2002-12-13 08:34:17 51°10.335 2°41.801 250.2 13.4 246.4 11.4
2002-12-13 08:34:24 51°10.325 2°41.763 250.7 13.4 247.3 11.4
2002-12-13 08:34:29 51°10.317 2°41.736 250 13.3 246.3 11.4
2002-12-13 08:34:34 51°10.31 2°41.709 249.8 13.3 246.2 11.4
2002-12-13 08:34:39 51°10.302 2°41.682 249.7 13.3 245.8 11.4
2002-12-13 08:34:43 51°10.296 2°41.661 249.2 13.3 245.6 11.4
2002-12-13 08:34:49 51°10.287 2°41.628 249.2 13.4 245.8 11.4
2002-12-13 08:34:54 51°10.279 2°41.602 249.3 13.4 245.9 11.4
2002-12-13 08:34:59 51°10.272 2°41.575 249.5 13.3 246.1 11.4
2002-12-13 08:35:04 51°10.265 2°41.548 249.7 13.3 246.3 11.4
2002-12-13 08:35:09 51°10.257 2°41.521 249.7 13.3 246.4 11.3
2002-12-13 08:35:14 51°10.25 2°41.494 250.2 13.3 246.7 11.3
2002-12-13 08:35:18 51°10.244 2°41.473 249.5 13.3 246.3 11.4
2002-12-13 08:35:23 51°10.236 2°41.446 249.3 13.4 246.3 11.3
2002-12-13 08:35:29 51°10.227 2°41.414 249.3 13.3 245.8 11.3
2002-12-13 08:35:34 51°10.219 2°41.387 249.2 13.3 245.6 11.4
2002-12-13 08:35:39 51°10.212 2°41.36 249.2 13.3 245.5 11.4
2002-12-13 08:35:43 51°10.206 2°41.339 249.7 13.3 245.9 11.4
2002-12-13 08:35:49 51°10.197 2°41.307 249.7 13.3 246.1 11.4
2002-12-13 08:35:54 51°10.189 2°41.28 249 13.3 245.9 11.4
2002-12-13 08:35:59 51°10.181 2°41.253 249.3 13.3 245.7 11.4
2002-12-13 08:36:04 51°10.173 2°41.227 249 13.3 245.1 11.4
2002-12-13 08:36:09 51°10.166 2°41.2 249.3 13.3 245.7 11.3
2002-12-13 08:36:14 51°10.158 2°41.173 248.8 13.3 245.4 11.4
2002-12-13 08:36:19 51°10.151 2°41.146 249.5 13.3 245.6 11.4
2002-12-13 08:36:24 51°10.143 2°41.12 249.8 13.3 246.2 11.4
2002-12-13 08:36:29 51°10.136 2°41.093 250 13.3 246.6 11.4
2002-12-13 08:36:33 51°10.13 2°41.071 249.3 13.3 246.1 11.4
2002-12-13 08:36:39 51°10.121 2°41.039 249.7 13.3 246 11.4
2002-12-13 08:36:44 51°10.113 2°41.012 249.8 13.3 246.2 11.4
2002-12-13 08:36:49 51°10.106 2°40.985 249.8 13.3 246.4 11.4
2002-12-13 08:36:53 51°10.1 2°40.964 250 13.3 246.4 11.4
2002-12-13 08:36:59 51°10.091 2°40.932 249.7 13.3 246.2 11.4
2002-12-13 08:37:03 51°10.085 2°40.91 250 13.3 246.1 11.5
2002-12-13 08:37:09 51°10.076 2°40.878 249.8 13.3 245.9 11.5
2002-12-13 08:37:13 51°10.07 2°40.857 249.7 13.3 246.1 11.4
2002-12-13 08:37:19 51°10.061 2°40.824 249.8 13.3 245.7 11.4
2002-12-13 08:37:24 51°10.054 2°40.797 249.8 13.3 246.5 11.4
2002-12-13 08:37:29 51°10.046 2°40.771 249.3 13.3 245.8 11.4
2002-12-13 08:37:33 51°10.04 2°40.749 249.7 13.3 246 11.5
2002-12-13 08:37:39 51°10.031 2°40.717 249.7 13.3 246 11.5
2002-12-13 08:37:44 51°10.023 2°40.69 249.3 13.3 245.9 11.5
2002-12-13 08:37:49 51°10.015 2°40.663 249.7 13.3 245.7 11.4
2002-12-13 08:37:54 51°10.009 2°40.636 250.3 13.3 247 11.5
2002-12-13 08:37:59 51°10 2°40.61 249.5 13.3 245.7 11.5
2002-12-13 08:38:04 51°9.994 2°40.583 250.2 13.3 246.9 11.5
2002-12-13 08:38:09 51°9.986 2°40.556 249.7 13.3 245.7 11.4
2002-12-13 08:38:14 51°9.979 2°40.529 250.3 13.3 246.7 11.5
2002-12-13 08:38:19 51°9.972 2°40.502 250.2 13.3 246.3 11.4
2002-12-13 08:38:23 51°9.966 2°40.481 249.5 13.2 246.5 11.5
2002-12-13 08:38:29 51°9.957 2°40.449 249.3 13.2 245.8 11.5
2002-12-13 08:38:33 51°9.951 2°40.427 249.8 13.3 246.1 11.4
2002-12-13 08:38:39 51°9.941 2°40.395 249.8 13.4 245.8 11.5
2002-12-13 08:38:44 51°9.934 2°40.369 250 13.3 246.1 11.5
2002-12-13 08:38:49 51°9.926 2°40.342 249.3 13.3 245.5 11.5
2002-12-13 08:38:53 51°9.92 2°40.321 249.3 13.2 245.3 11.4
2002-12-13 08:38:57 51°9.914 2°40.3 249.5 13.2 245.4 11.5
2002-12-13 08:39:03 51°9.905 2°40.268 249.2 13.3 245.3 11.5
2002-12-13 08:39:09 51°9.896 2°40.236 249.3 13.3 245.1 11.5
2002-12-13 08:39:13 51°9.89 2°40.215 249.3 13.2 245.5 11.5
2002-12-13 08:39:19 51°9.881 2°40.182 249.8 13.3 245.3 11.5
2002-12-13 08:39:24 51°9.873 2°40.156 250 13.3 246.2 11.5
2002-12-13 08:39:29 51°9.866 2°40.129 249.3 13.2 245.7 11.5
2002-12-13 08:39:34 51°9.859 2°40.103 250 13.3 246.4 11.5
2002-12-13 08:39:39 51°9.851 2°40.076 249.5 13.3 245.9 11.5
2002-12-13 08:39:43 51°9.845 2°40.054 250 13.3 246.3 11.5
2002-12-13 08:39:49 51°9.836 2°40.023 250.2 13.2 246 11.5
2002-12-13 08:39:54 51°9.829 2°39.996 250 13.2 246.2 11.5
2002-12-13 08:39:59 51°9.821 2°39.969 250.2 13.2 246.2 11.5
2002-12-13 08:40:04 51°9.814 2°39.943 249.7 13.2 246.1 11.5
2002-12-13 08:40:09 51°9.807 2°39.916 250.2 13.3 246.2 11.5
2002-12-13 08:40:13 51°9.801 2°39.894 250.2 13.3 246.2 11.5
2002-12-13 08:40:19 51°9.792 2°39.862 250 13.2 246.3 11.5
2002-12-13 08:40:24 51°9.784 2°39.836 249.7 13.2 246 11.5
2002-12-13 08:40:29 51°9.777 2°39.809 249.7 13.2 246 11.5
2002-12-13 08:40:34 51°9.769 2°39.783 249 13.2 245.6 11.5
2002-12-13 08:40:37 51°9.765 2°39.767 249.5 13.2 245.3 11.4
2002-12-13 08:40:44 51°9.754 2°39.729 249.5 13.3 245.9 11.5
2002-12-13 08:40:49 51°9.746 2°39.703 249.3 13.3 245.4 11.5
2002-12-13 08:40:54 51°9.739 2°39.676 249.8 13.2 246.2 11.5
2002-12-13 08:40:59 51°9.731 2°39.65 249.3 13.2 245.7 11.5
2002-12-13 08:41:03 51°9.726 2°39.628 250 13.3 246.4 11.5
2002-12-13 08:41:09 51°9.717 2°39.596 250 13.3 246 11.5
2002-12-13 08:41:14 51°9.71 2°39.569 249.8 13.2 246.4 11.5
2002-12-13 08:41:19 51°9.702 2°39.542 249.5 13.3 246.1 11.4
2002-12-13 08:41:24 51°9.694 2°39.515 249.8 13.3 246.3 11.5
2002-12-13 08:41:29 51°9.687 2°39.489 249.5 13.3 246 11.5
2002-12-13 08:41:33 51°9.681 2°39.467 249.3 13.3 245.8 11.5
2002-12-13 08:41:39 51°9.672 2°39.435 249.8 13.3 245.9 11.5
2002-12-13 08:41:44 51°9.665 2°39.408 250.3 13.3 246.2 11.5
2002-12-13 08:41:49 51°9.657 2°39.382 250.3 13.2 246.9 11.5
2002-12-13 08:41:53 51°9.651 2°39.36 250.3 13.3 246.6 11.6
2002-12-13 08:41:59 51°9.643 2°39.328 250.2 13.3 246.6 11.5
2002-12-13 08:42:03 51°9.637 2°39.307 249.5 13.3 246.3 11.5
2002-12-13 08:42:09 51°9.628 2°39.274 249.3 13.3 246.2 11.6
2002-12-13 08:42:14 51°9.62 2°39.248 249.2 13.3 246 11.5
2002-12-13 08:42:19 51°9.612 2°39.221 248.8 13.3 245.6 11.5
2002-12-13 08:42:23 51°9.606 2°39.2 249.2 13.3 245.6 11.6
2002-12-13 08:42:29 51°9.597 2°39.167 249.3 13.3 245.8 11.6
2002-12-13 08:42:34 51°9.59 2°39.14 250 13.4 246.2 11.6
2002-12-13 08:42:38 51°9.584 2°39.119 249.8 13.3 246.6 11.6
2002-12-13 08:42:44 51°9.576 2°39.086 250 13.3 246.8 11.6
2002-12-13 08:42:49 51°9.568 2°39.059 250.3 13.4 246.9 11.6
2002-12-13 08:42:54 51°9.561 2°39.033 249.7 13.3 246.6 11.7
2002-12-13 08:42:59 51°9.553 2°39.006 249.7 13.3 246.4 11.7
2002-12-13 08:43:04 51°9.546 2°38.979 249.5 13.3 246.1 11.7
2002-12-13 08:43:09 51°9.538 2°38.952 249.2 13.4 246.2 11.7
2002-12-13 08:43:13 51°9.532 2°38.93 249 13.4 245.8 11.7
2002-12-13 08:43:19 51°9.523 2°38.898 249.2 13.4 245.6 11.7
2002-12-13 08:43:24 51°9.516 2°38.871 249.7 13.4 246.1 11.6
2002-12-13 08:43:29 51°9.509 2°38.844 250 13.4 246.4 11.7
2002-12-13 08:43:34 51°9.501 2°38.817 249.7 13.3 246.7 11.7
2002-12-13 08:43:39 51°9.494 2°38.79 249.7 13.4 246.5 11.7
2002-12-13 08:43:43 51°9.488 2°38.768 249.8 13.4 246.6 11.7
2002-12-13 08:43:49 51°9.479 2°38.736 249.5 13.4 246.4 11.7
2002-12-13 08:43:54 51°9.471 2°38.709 249.3 13.4 246 11.7
2002-12-13 08:43:59 51°9.464 2°38.682 249.7 13.4 246.4 11.6
2002-12-13 08:44:03 51°9.458 2°38.66 249.7 13.3 246.2 11.7
2002-12-13 08:44:09 51°9.449 2°38.627 249.5 13.5 245.9 11.7
2002-12-13 08:44:14 51°9.441 2°38.6 250 13.5 246.3 11.7
2002-12-13 08:44:19 51°9.434 2°38.573 249.3 13.4 246 11.7
2002-12-13 08:44:24 51°9.427 2°38.546 249.5 13.5 246.3 11.7
2002-12-13 08:44:29 51°9.419 2°38.519 249.7 13.5 246.2 11.7
2002-12-13 08:44:33 51°9.413 2°38.497 249.8 13.5 246.5 11.7
2002-12-13 08:44:39 51°9.404 2°38.465 249.8 13.4 246.5 11.7
2002-12-13 08:44:44 51°9.397 2°38.437 249.8 13.5 246.4 11.7
2002-12-13 08:44:49 51°9.389 2°38.41 250 13.5 246.7 11.7
2002-12-13 08:44:54 51°9.382 2°38.383 249.8 13.5 246.7 11.7
2002-12-13 08:44:59 51°9.375 2°38.355 249.7 13.5 246.4 11.7
2002-12-13 08:45:04 51°9.367 2°38.328 249.8 13.5 246.8 11.7
2002-12-13 08:45:09 51°9.359 2°38.301 249.2 13.5 246 11.7
2002-12-13 08:45:13 51°9.354 2°38.279 250 13.5 246.9 11.7
2002-12-13 08:45:19 51°9.344 2°38.246 249.2 13.5 246 11.6
2002-12-13 08:45:24 51°9.337 2°38.219 249.7 13.6 246.5 11.7
2002-12-13 08:45:29 51°9.329 2°38.192 249.8 13.6 246.1 11.7
2002-12-13 08:45:34 51°9.322 2°38.164 250.2 13.5 246.4 11.7
2002-12-13 08:45:39 51°9.315 2°38.137 250.2 13.5 246.6 11.7
2002-12-13 08:45:44 51°9.306 2°38.11 249.3 13.5 246.2 11.7
2002-12-13 08:45:49 51°9.299 2°38.082 250.2 13.6 246.1 11.6
2002-12-13 08:45:53 51°9.293 2°38.06 249.8 13.6 246 11.6
2002-12-13 08:45:59 51°9.284 2°38.028 249.7 13.6 245.9 11.7
2002-12-13 08:46:04 51°9.276 2°38.001 249.2 13.5 245.6 11.6
2002-12-13 08:46:09 51°9.268 2°37.973 249.2 13.5 245.4 11.6
2002-12-13 08:46:13 51°9.262 2°37.951 249.7 13.5 245.8 11.6
2002-12-13 08:46:19 51°9.253 2°37.918 249.7 13.5 246.3 11.6
2002-12-13 08:46:24 51°9.246 2°37.891 250 13.5 246.5 11.5
2002-12-13 08:46:29 51°9.238 2°37.864 250.2 13.5 246.7 11.5
2002-12-13 08:46:34 51°9.231 2°37.836 249.8 13.5 246.3 11.5
2002-12-13 08:46:38 51°9.225 2°37.815 249.7 13.6 246.3 11.6
2002-12-13 08:46:44 51°9.215 2°37.782 249.2 13.6 246 11.5
2002-12-13 08:46:49 51°9.207 2°37.755 249.5 13.6 245.8 11.5
2002-12-13 08:46:54 51°9.2 2°37.727 249.8 13.6 246.1 11.5
2002-12-13 08:46:59 51°9.192 2°37.7 249.8 13.6 246.1 11.5
2002-12-13 08:47:04 51°9.185 2°37.672 250.5 13.6 246.6 11.5
2002-12-13 08:47:09 51°9.178 2°37.645 250.2 13.6 246.9 11.5
2002-12-13 08:47:14 51°9.17 2°37.617 250.3 13.6 246.9 11.5
2002-12-13 08:47:19 51°9.163 2°37.59 249.8 13.6 246.5 11.4
2002-12-13 08:47:23 51°9.156 2°37.568 249.2 13.5 246 11.3
2002-12-13 08:47:29 51°9.147 2°37.536 249 13.5 245.6 11.3
2002-12-13 08:47:34 51°9.14 2°37.508 249.5 13.5 245.9 11.3
2002-12-13 08:47:39 51°9.132 2°37.481 249.5 13.5 246.1 11.3
2002-12-13 08:47:44 51°9.125 2°37.454 250 13.5 246.6 11.2
2002-12-13 08:47:49 51°9.118 2°37.426 250.8 13.5 247.3 11.2
2002-12-13 08:47:54 51°9.11 2°37.399 250 13.5 246.9 11.2
2002-12-13 08:47:59 51°9.103 2°37.372 249.8 13.5 246.6 11.2
2002-12-13 08:48:03 51°9.097 2°37.352 249.7 13.1 246.1 11.2
2002-12-13 08:48:09 51°9.089 2°37.324 249.5 12.1 246.3 11.1
2002-12-13 08:48:14 51°9.083 2°37.302 250.5 11.3 246 11.2
2002-12-13 08:48:19 51°9.079 2°37.281 252.3 10.6 247.7 11.3
2002-12-13 08:48:23 51°9.075 2°37.266 254 9.6 249 11.3
2002-12-13 08:48:29 51°9.072 2°37.246 255 8.4 251.7 11.4
2002-12-13 08:48:34 51°9.068 2°37.232 255.2 7.7 251.8 11.4
2002-12-13 08:48:39 51°9.066 2°37.218 257 6.8 253.2 11.4
2002-12-13 08:48:44 51°9.064 2°37.207 259.8 5.8 255.8 11.4
2002-12-13 08:48:49 51°9.063 2°37.197 264.2 5.1 258.4 11.4
2002-12-13 08:48:53 51°9.063 2°37.19 269 4.2 263.6 11.4
2002-12-13 08:48:59 51°9.063 2°37.182 273.2 3.6 267.9 11.4
2002-12-13 08:49:04 51°9.064 2°37.177 277 2.9 274 11.4
2002-12-13 08:49:09 51°9.064 2°37.174 281.5 2.1 279.1 11.4
2002-12-13 08:49:14 51°9.065 2°37.172 287.7 1.3 289.1 11.4
2002-12-13 08:49:19 51°9.066 2°37.17 292.7 1 297.5 11.4
2002-12-13 08:49:23 51°9.066 2°37.169 297 0.9 300.7 11.4
2002-12-13 08:49:29 51°9.068 2°37.167 300.8 0.9 303.5 11.5
2002-12-13 08:49:34 51°9.068 2°37.165 303.5 0.9 306.5 11.5
2002-12-13 08:49:39 51°9.069 2°37.164 306.2 0.8 312.9 11.5
2002-12-13 08:49:44 51°9.07 2°37.163 308.3 0.9 317.9 11.5
2002-12-13 08:49:49 51°9.071 2°37.162 310.7 0.9 320.2 11.5
2002-12-13 08:49:53 51°9.072 2°37.161 312.8 0.9 320.8 11.5
2002-12-13 08:49:59 51°9.073 2°37.16 315 0.9 323.6 11.5
2002-12-13 08:50:04 51°9.074 2°37.159 316.8 0.9 325.5 11.5
2002-12-13 08:50:09 51°9.075 2°37.158 318.3 0.9 328.3 11.5
2002-12-13 08:50:14 51°9.076 2°37.157 319.8 0.9 330 11.5
2002-12-13 08:50:19 51°9.078 2°37.156 321 0.9 330.8 11.5
2002-12-13 08:50:23 51°9.078 2°37.155 321.8 0.9 330.7 11.5
2002-12-13 08:50:29 51°9.08 2°37.154 323 0.9 333.7 11.5
2002-12-13 08:50:34 51°9.081 2°37.153 323.8 0.9 334.4 11.6
2002-12-13 08:50:39 51°9.082 2°37.153 324.8 0.9 336.4 11.6
2002-12-13 08:50:44 51°9.083 2°37.152 325.7 0.9 339.3 11.6
2002-12-13 08:50:49 51°9.084 2°37.151 326.5 0.9 339.4 11.6
2002-12-13 08:50:53 51°9.085 2°37.15 327.5 0.9 337.7 11.6
2002-12-13 08:50:59 51°9.086 2°37.15 328.3 0.9 338.9 11.6
2002-12-13 08:51:03 51°9.087 2°37.149 329 0.8 339.2 11.6
2002-12-13 08:51:09 51°9.088 2°37.148 329.7 0.8 338.4 11.6
2002-12-13 08:51:13 51°9.09 2°37.148 330.3 0.8 341.8 11.6
2002-12-13 08:51:19 51°9.091 2°37.147 331 0.9 342.1 11.6
2002-12-13 08:51:24 51°9.092 2°37.146 331.8 0.9 342.4 11.6
2002-12-13 08:51:29 51°9.093 2°37.146 332.3 0.9 341.6 11.7
2002-12-13 08:51:34 51°9.095 2°37.145 333.2 0.9 341.2 11.7
2002-12-13 08:51:39 51°9.096 2°37.145 333.8 0.9 340.8 11.7
2002-12-13 08:51:43 51°9.096 2°37.144 334.5 0.8 340.8 11.7
2002-12-13 08:51:49 51°9.098 2°37.144 335.3 0.9 343.8 11.6
2002-12-13 08:51:54 51°9.099 2°37.143 335.8 0.9 345.6 11.7
2002-12-13 08:51:59 51°9.1 2°37.143 336.5 0.9 346.9 11.7
2002-12-13 08:52:03 51°9.102 2°37.142 337.2 0.9 346.4 11.7
2002-12-13 08:52:09 51°9.103 2°37.142 337.7 0.9 345.5 11.7
2002-12-13 08:52:14 51°9.104 2°37.141 338.5 0.8 344.5 11.7
2002-12-13 08:52:19 51°9.105 2°37.14 339.2 0.8 343.8 11.7
2002-12-13 08:52:24 51°9.106 2°37.14 339.5 0.8 344.3 11.8
2002-12-13 08:52:29 51°9.107 2°37.14 340 0.8 344.3 11.8
2002-12-13 08:52:33 51°9.108 2°37.139 340.7 0.9 343.6 11.7
2002-12-13 08:52:39 51°9.11 2°37.139 340.8 0.9 344.4 11.8
2002-12-13 08:52:44 51°9.111 2°37.139 341.5 0.9 346.8 11.8
2002-12-13 08:52:49 51°9.112 2°37.138 342 0.9 349.2 11.8
2002-12-13 08:52:54 51°9.113 2°37.138 342.5 0.8 345.6 11.8
2002-12-13 08:52:59 51°9.114 2°37.138 343.2 0.8 347.1 11.8
2002-12-13 08:53:04 51°9.115 2°37.137 343.7 0.8 348.2 11.8
2002-12-13 08:53:09 51°9.117 2°37.137 344.2 0.8 348.6 11.8
2002-12-13 08:53:14 51°9.118 2°37.137 344.7 0.8 349.4 11.8
2002-12-13 08:53:19 51°9.119 2°37.137 345 0.9 350.7 11.8
2002-12-13 08:53:24 51°9.12 2°37.136 345.5 0.9 351.3 11.8
2002-12-13 08:53:29 51°9.121 2°37.136 346 0.8 349.9 11.9
2002-12-13 08:53:33 51°9.122 2°37.136 346.5 0.8 349 11.9
2002-12-13 08:53:39 51°9.123 2°37.136 346.8 0.8 349.1 11.9
2002-12-13 08:53:44 51°9.124 2°37.135 347.2 0.8 349.6 11.9
2002-12-13 08:53:49 51°9.125 2°37.135 347.8 0.8 349 11.9
2002-12-13 08:53:54 51°9.126 2°37.135 348.3 0.8 351.7 11.9
2002-12-13 08:53:59 51°9.128 2°37.135 348.7 0.9 353.3 11.9
2002-12-13 08:54:04 51°9.129 2°37.134 349 0.9 352.8 11.9
2002-12-13 08:54:09 51°9.13 2°37.134 349.5 0.9 351 11.9
2002-12-13 08:54:14 51°9.131 2°37.134 349.8 0.8 351.2 12
2002-12-13 08:54:19 51°9.132 2°37.134 350.2 0.8 351.9 12
2002-12-13 08:54:24 51°9.133 2°37.134 350.7 0.9 352.2 12
2002-12-13 08:54:29 51°9.134 2°37.133 351.2 0.8 352.6 12
2002-12-13 08:54:33 51°9.135 2°37.133 351.7 0.9 354.6 12
2002-12-13 08:54:39 51°9.136 2°37.133 352 0.8 352.8 12
2002-12-13 08:54:44 51°9.138 2°37.133 352.5 0.9 354.3 12
2002-12-13 08:54:49 51°9.139 2°37.133 353.2 0.8 349.5 12
2002-12-13 08:54:54 51°9.139 2°37.133 353.7 0.8 352.5 12
2002-12-13 08:54:59 51°9.141 2°37.133 354.2 0.8 353.2 12
2002-12-13 08:55:03 51°9.141 2°37.133 354.7 0.8 356.1 12
2002-12-13 08:55:09 51°9.143 2°37.132 355 0.8 355.5 12
2002-12-13 08:55:13 51°9.144 2°37.133 355.5 0.8 357.1 12.1
2002-12-13 08:55:19 51°9.145 2°37.132 355.8 0.7 356.7 12.1
2002-12-13 08:55:24 51°9.146 2°37.133 356.5 0.7 0.3 12.1
2002-12-13 08:55:29 51°9.147 2°37.133 357 0.7 0.9 12.1
2002-12-13 08:55:33 51°9.147 2°37.133 357.5 0.7 359.5 12.1
2002-12-13 08:55:39 51°9.149 2°37.133 358 0.7 359.9 12.1
2002-12-13 08:55:44 51°9.149 2°37.133 358.5 0.7 1.9 12.1
2002-12-13 08:55:49 51°9.15 2°37.133 359.2 0.7 4.3 12.1
2002-12-13 08:55:54 51°9.151 2°37.133 359.7 0.7 358.6 12.1
2002-12-13 08:55:59 51°9.152 2°37.133 0.2 0.6 357.1 12
2002-12-13 08:56:04 51°9.153 2°37.133 0.7 0.6 356.2 11.8
2002-12-13 08:56:09 51°9.153 2°37.133 1.2 0.6 359 12
2002-12-13 08:56:14 51°9.154 2°37.133 1.7 0.6 358.4 12.1
2002-12-13 08:56:19 51°9.155 2°37.133 2.5 0.6 0.8 12.1
2002-12-13 08:56:23 51°9.156 2°37.133 3 0.7 359.4 12.2
2002-12-13 08:56:29 51°9.157 2°37.133 3.5 0.8 358.9 12.2
2002-12-13 08:56:34 51°9.158 2°37.133 4.2 0.8 359.2 12.2
2002-12-13 08:56:39 51°9.159 2°37.133 4.8 0.8 358.5 12.2
2002-12-13 08:56:44 51°9.161 2°37.133 5.5 0.8 359.6 12.2
2002-12-13 08:56:49 51°9.162 2°37.133 6 0.9 1.8 12.2
2002-12-13 08:56:53 51°9.163 2°37.133 6.7 0.9 0.5 12.2
2002-12-13 08:56:59 51°9.165 2°37.134 7.3 1 3.2 12.3
2002-12-13 08:57:04 51°9.166 2°37.134 8 1.1 4.3 12.3
2002-12-13 08:57:09 51°9.168 2°37.134 8.7 1.1 5.8 12.3
2002-12-13 08:57:14 51°9.169 2°37.134 9.3 1.1 6.5 12.3
2002-12-13 08:57:19 51°9.17 2°37.135 10 1.1 6.6 12.3
2002-12-13 08:57:24 51°9.172 2°37.135 10.7 1.1 7.1 12.3
2002-12-13 08:57:29 51°9.174 2°37.135 11.3 1.2 6.8 12.3
2002-12-13 08:57:33 51°9.175 2°37.135 12 1.2 7.3 12.3
2002-12-13 08:57:39 51°9.177 2°37.136 12.7 1.3 8.3 12.4
2002-12-13 08:57:44 51°9.179 2°37.137 13.7 1.3 10.5 12.3
2002-12-13 08:57:49 51°9.181 2°37.137 14.5 1.3 11 12.4
2002-12-13 08:57:54 51°9.183 2°37.138 15.3 1.4 11.3 12.3
2002-12-13 08:57:59 51°9.185 2°37.139 16.3 1.4 11.6 12.4
2002-12-13 08:58:04 51°9.186 2°37.139 17.3 1.4 12.1 12.4
2002-12-13 08:58:09 51°9.188 2°37.14 18.2 1.4 13 12.4
2002-12-13 08:58:14 51°9.19 2°37.141 19.2 1.4 13.8 12.3
2002-12-13 08:58:19 51°9.192 2°37.141 20.2 1.4 14.1 12.5
2002-12-13 08:58:23 51°9.194 2°37.142 21 1.5 13.8 12.5
2002-12-13 08:58:29 51°9.196 2°37.143 21.8 1.5 14.8 12.5
2002-12-13 08:58:33 51°9.198 2°37.144 22.5 1.6 15.3 12.6
2002-12-13 08:58:39 51°9.201 2°37.145 23.2 1.5 16.8 12.6
2002-12-13 08:58:44 51°9.203 2°37.147 24 1.5 17.7 12.6
2002-12-13 08:58:49 51°9.205 2°37.148 24.7 1.5 18.7 12.6
2002-12-13 08:58:54 51°9.207 2°37.149 25.3 1.6 19.8 12.6
2002-12-13 08:58:59 51°9.209 2°37.15 26 1.6 21.6 12.7
2002-12-13 08:59:04 51°9.211 2°37.151 26.7 1.6 21.8 12.7
2002-12-13 08:59:09 51°9.213 2°37.152 27.2 1.6 22.7 12.6
2002-12-13 08:59:14 51°9.215 2°37.154 27.7 1.5 21.8 12.7
2002-12-13 08:59:19 51°9.216 2°37.155 28.2 1.5 22.6 12.6
2002-12-13 08:59:23 51°9.218 2°37.156 28.7 1.5 23.2 12.7
2002-12-13 08:59:29 51°9.22 2°37.157 29.2 1.4 23.2 12.8
2002-12-13 08:59:34 51°9.222 2°37.158 29.7 1.5 22.2 12.8
2002-12-13 08:59:39 51°9.224 2°37.16 30.2 1.5 22.3 12.8
2002-12-13 08:59:44 51°9.225 2°37.161 30.7 1.4 24.3 12.8
2002-12-13 08:59:49 51°9.227 2°37.162 31.2 1.4 24.4 12.8
2002-12-13 08:59:53 51°9.228 2°37.163 31.8 1.4 24.9 12.9
2002-12-13 08:59:59 51°9.231 2°37.164 32.7 1.4 23.8 12.9
2002-12-13 09:00:03 51°9.232 2°37.166 33.3 1.5 27 12.9
2002-12-13 09:00:09 51°9.235 2°37.169 35.7 1.9 29.6 12.9
2002-12-13 09:00:13 51°9.237 2°37.171 40.3 2.3 33.6 12.8
2002-12-13 09:00:19 51°9.241 2°37.177 47.2 2.8 37.7 12.9
2002-12-13 09:00:23 51°9.244 2°37.182 54.3 3.4 45.4 13
2002-12-13 09:00:29 51°9.248 2°37.19 61.8 3.8 52.6 13
2002-12-13 09:00:34 51°9.25 2°37.198 69.8 4 59.8 13
2002-12-13 09:00:39 51°9.252 2°37.207 77.3 4 65.1 13
2002-12-13 09:00:44 51°9.253 2°37.216 84.3 4 72.7 12.8
2002-12-13 09:00:49 51°9.254 2°37.224 90.7 4.1 79 12.9
2002-12-13 09:00:54 51°9.254 2°37.234 97.3 4.1 84.6 12.7
2002-12-13 09:00:59 51°9.253 2°37.242 103.8 4.1 89.5 12.8
2002-12-13 09:01:04 51°9.252 2°37.251 110.8 4.1 97.8 12.8
2002-12-13 09:01:09 51°9.25 2°37.26 117.5 4.1 104.6 12.7
2002-12-13 09:01:13 51°9.248 2°37.266 123.8 4.1 111.7 12.7
2002-12-13 09:01:19 51°9.245 2°37.275 131.2 4.1 117.4 12.6
2002-12-13 09:01:24 51°9.241 2°37.282 138 4 125.6 12.5
2002-12-13 09:01:29 51°9.237 2°37.288 145 4 132.7 12.5
2002-12-13 09:01:34 51°9.233 2°37.293 152.2 4 139.6 12.4
2002-12-13 09:01:39 51°9.228 2°37.297 159.2 4 146.9 12.3
2002-12-13 09:01:44 51°9.223 2°37.301 166.5 4 154.3 12.3
2002-12-13 09:01:49 51°9.217 2°37.303 173 4 159.8 12.3
2002-12-13 09:01:53 51°9.213 2°37.304 180.2 3.9 168.4 12.3
2002-12-13 09:01:57 51°9.209 2°37.304 186.2 4 175.3 12.2
2002-12-13 09:02:04 51°9.201 2°37.304 190.2 4.1 180.1 12.2
2002-12-13 09:02:09 51°9.195 2°37.303 193.2 4.3 184.6 12.1
2002-12-13 09:02:14 51°9.189 2°37.301 195.5 4.4 187.5 12.1
2002-12-13 09:02:17 51°9.185 2°37.3 197.8 4.5 190.2 12
2002-12-13 09:02:24 51°9.176 2°37.297 200 4.5 192.2 12
2002-12-13 09:02:29 51°9.171 2°37.294 201.7 4.6 195 11.9
2002-12-13 09:02:34 51°9.164 2°37.291 203.5 4.6 196.8 11.9
2002-12-13 09:02:39 51°9.158 2°37.288 205.3 4.6 198.4 11.8
2002-12-13 09:02:44 51°9.152 2°37.284 207 4.7 200.3 11.8
2002-12-13 09:02:49 51°9.146 2°37.28 208.7 4.8 202 11.7
2002-12-13 09:02:53 51°9.141 2°37.276 209.7 4.8 203.5 11.7
2002-12-13 09:02:59 51°9.134 2°37.272 210.2 4.7 204.1 11.6
2002-12-13 09:03:04 51°9.129 2°37.268 210.3 4.5 204.8 11.6
2002-12-13 09:03:09 51°9.124 2°37.263 210.7 4.3 205.1 11.6
2002-12-13 09:03:13 51°9.12 2°37.261 210.7 4 205.6 11.6
2002-12-13 09:03:19 51°9.115 2°37.256 212.7 3.7 207.2 11.5
2002-12-13 09:03:24 51°9.111 2°37.253 215.2 3.4 208.7 11.5
2002-12-13 09:03:29 51°9.108 2°37.249 218.5 3.2 211.4 11.5
2002-12-13 09:03:34 51°9.105 2°37.246 222.2 2.8 214.4 11.5
2002-12-13 09:03:39 51°9.102 2°37.242 226.5 2.5 217.2 11.5
2002-12-13 09:03:43 51°9.101 2°37.24 229.8 2 220.7 11.5
2002-12-13 09:03:49 51°9.1 2°37.238 232.7 1.4 223.4 11.5
2002-12-13 09:03:53 51°9.099 2°37.238 236 0.7 221.2 11.5
2002-12-13 09:03:59 51°9.099 2°37.238 239 0.3 221.9 11.5
2002-12-13 09:04:02 51°9.099 2°37.238 241.5   336.5 11.5
2002-12-13 09:04:09 51°9.1 2°37.238 243.5   208.1 11.5
2002-12-13 09:04:14 51°9.1 2°37.238 245.5 0.1 309.1 11.4
2002-12-13 09:04:19 51°9.1 2°37.237 247.2 0.1 313.9 11.5
2002-12-13 09:04:24 51°9.1 2°37.237 249 0.2 307.6 11.5
2002-12-13 09:04:29 51°9.1 2°37.236 250.7 0.1 292.1 11.4
2002-12-13 09:04:34 51°9.1 2°37.236 252 0.1 276.6 11.5
2002-12-13 09:04:39 51°9.1 2°37.236 253.2 0.2 265.7 11.5
2002-12-13 09:04:44 51°9.1 2°37.235 254.2 0.2 276.5 11.5
2002-12-13 09:04:49 51°9.101 2°37.235 254.8 0.3 290 11.5
2002-12-13 09:04:53 51°9.101 2°37.234 255.5 0.3 291.6 11.5
2002-12-13 09:04:59 51°9.101 2°37.233 255.8 0.3 281.1 11.5
2002-12-13 09:05:04 51°9.101 2°37.233 256 0.4 280.8 11.4
2002-12-13 09:05:09 51°9.102 2°37.232 256 0.3 275.3 11.5
2002-12-13 09:05:13 51°9.102 2°37.231 256 0.4 276.5 11.5
2002-12-13 09:05:19 51°9.102 2°37.23 255.7 0.4 278 11.5
2002-12-13 09:05:24 51°9.102 2°37.229 255.3 0.4 277.2 11.5
2002-12-13 09:05:29 51°9.102 2°37.228 255.2 0.4 281.2 11.5
2002-12-13 09:05:34 51°9.103 2°37.227 254.8 0.5 286.8 11.5
2002-12-13 09:05:39 51°9.103 2°37.226 254.5 0.5 283 11.5
2002-12-13 09:05:42 51°9.103 2°37.226 254 0.4 282.5 11.5
2002-12-13 09:05:49 51°9.103 2°37.225 253.5 0.4 279.3 11.5
2002-12-13 09:05:54 51°9.103 2°37.224 252.7 0.4 286.5 11.5
2002-12-13 09:05:59 51°9.102 2°37.223 252 0.4 274.4 11.5
2002-12-13 09:06:04 51°9.103 2°37.222 251.3 0.5 280.2 11.5
2002-12-13 09:06:09 51°9.103 2°37.221 251 0.4 279.1 11.5
2002-12-13 09:06:14 51°9.103 2°37.22 250.7 0.4 280.9 11.5
2002-12-13 09:06:17 51°9.103 2°37.22 250.3 0.4 282.1 11.5
2002-12-13 09:06:23 51°9.103 2°37.219 250 0.3 278.7 11.5
2002-12-13 09:06:29 51°9.103 2°37.218 250 0.3 280.1 11.5
2002-12-13 09:06:33 51°9.103 2°37.217 249.5 0.3 274.3 11.5
2002-12-13 09:06:39 51°9.103 2°37.216 249.2 0.4 280.7 11.5
2002-12-13 09:06:43 51°9.104 2°37.216 249 0.3 295.3 11.5
2002-12-13 09:06:49 51°9.104 2°37.215 248.8 0.3 301.1 11.5
2002-12-13 09:06:54 51°9.104 2°37.215 248.3 0.3 311.1 11.5
2002-12-13 09:06:59 51°9.104 2°37.214 247.8 0.2 321.7 11.5
2002-12-13 09:07:03 51°9.104 2°37.214 247.2 0.2 315.5 11.5
2002-12-13 09:07:09 51°9.105 2°37.213 246.8 0.2 316.5 11.5
2002-12-13 09:07:13 51°9.105 2°37.213 246.3 0.3 333.1 11.5
2002-12-13 09:07:19 51°9.106 2°37.213 245.7 0.3 345.7 11.5
2002-12-13 09:07:24 51°9.106 2°37.213 245.3 0.3 352.5 11.5
2002-12-13 09:07:29 51°9.107 2°37.213 244.7 0.3 352.7 11.5
2002-12-13 09:07:33 51°9.107 2°37.213 244.3 0.3 355.1 11.5
2002-12-13 09:07:39 51°9.108 2°37.212 243.8 0.4 353.2 11.5
2002-12-13 09:07:43 51°9.108 2°37.213 243.3 0.3 357.7 11.6
2002-12-13 09:07:49 51°9.108 2°37.213 243.2 0.3 2 11.6
2002-12-13 09:07:53 51°9.109 2°37.213 242.8 0.3 9.3 11.6
2002-12-13 09:07:59 51°9.11 2°37.213 242.5 0.4 10.2 11.5
2002-12-13 09:08:04 51°9.11 2°37.213 242.3 0.4 14.5 11.5
2002-12-13 09:08:09 51°9.111 2°37.214 242 0.5 13.3 11.5
2002-12-13 09:08:13 51°9.111 2°37.214 241.8 0.5 17.5 11.5
2002-12-13 09:08:17 51°9.112 2°37.214 241.8 0.5 17.9 11.5
2002-12-13 09:08:24 51°9.112 2°37.215 241.7 0.5 22.8 11.5
2002-12-13 09:08:29 51°9.113 2°37.215 241.5 0.5 19.4 11.6
2002-12-13 09:08:33 51°9.114 2°37.215 241.7 0.4 17.8 11.6
2002-12-13 09:08:39 51°9.114 2°37.215 241.8 0.4 13.4 11.6
2002-12-13 09:08:44 51°9.115 2°37.215 241.7 0.4 14 11.6
2002-12-13 09:08:49 51°9.115 2°37.216 241.5 0.4 9.3 11.6
2002-12-13 09:08:54 51°9.116 2°37.216 241.7 0.4 6.8 11.5
2002-12-13 09:08:59 51°9.117 2°37.216 241.5 0.4 8.8 11.6
2002-12-13 09:09:02 51°9.117 2°37.216 241.3 0.4 9.5 11.6
2002-12-13 09:09:09 51°9.117 2°37.216 241 0.4 5.3 11.6
2002-12-13 09:09:14 51°9.118 2°37.217 240.5 0.3 10.9 11.5
2002-12-13 09:09:19 51°9.118 2°37.217 240.2 0.3 7.8 11.6
2002-12-13 09:09:22 51°9.118 2°37.217 239.7 0.3 2 11.6
2002-12-13 09:09:29 51°9.119 2°37.217 239 0.3   11.6
2002-12-13 09:09:34 51°9.119 2°37.217 238.3 0.3 2.2 11.6
2002-12-13 09:09:39 51°9.12 2°37.217 237.5 0.2 4.1 11.6
2002-12-13 09:09:44 51°9.12 2°37.217 236.5 0.2 357.2 11.6
2002-12-13 09:09:49 51°9.12 2°37.217 235.5 0.2 353 11.6
2002-12-13 09:09:54 51°9.121 2°37.216 234.5 0.3 346.9 11.6
2002-12-13 09:09:57 51°9.121 2°37.216 233.3 0.3 340.3 11.6
2002-12-13 09:10:03 51°9.121 2°37.216 232.2 0.3 330.2 11.6
2002-12-13 09:10:09 51°9.121 2°37.215 230.8 0.2 320.2 11.6
2002-12-13 09:10:14 51°9.121 2°37.215 229.5 0.2 302.3 11.6
2002-12-13 09:10:19 51°9.122 2°37.215 228 0.2 301.8 11.6
2002-12-13 09:10:24 51°9.122 2°37.215 226.5 0.2 312.5 11.6
2002-12-13 09:10:29 51°9.122 2°37.214 225.2 0.2 313.1 11.6
2002-12-13 09:10:34 51°9.122 2°37.214 223.7 0.2 308.5 11.6
2002-12-13 09:10:39 51°9.122 2°37.213 222.2 0.2 301.4 11.6
2002-12-13 09:10:44 51°9.122 2°37.213 220.7 0.2 288.1 11.6
2002-12-13 09:10:49 51°9.122 2°37.212 219.3 0.2 262.5 11.6
2002-12-13 09:10:53 51°9.122 2°37.212 218 0.2 259.7 11.6
2002-12-13 09:10:59 51°9.122 2°37.212 216.7 0.2 261.3 11.6
2002-12-13 09:11:04 51°9.122 2°37.211 215.3 0.2 267.6 11.6
2002-12-13 09:11:09 51°9.122 2°37.211 214.2 0.1 275.2 11.6
2002-12-13 09:11:14 51°9.122 2°37.211 212.8 0.2 267.1 11.6
2002-12-13 09:11:18 51°9.122 2°37.211 211.8 0.2 259.5 11.6
2002-12-13 09:11:24 51°9.122 2°37.21 210.7 0.2 249.1 11.6
2002-12-13 09:11:29 51°9.122 2°37.21 209.3 0.2 259.8 11.6
2002-12-13 09:11:33 51°9.122 2°37.209 208.3 0.2 255.5 11.6
2002-12-13 09:11:39 51°9.121 2°37.209 207.3 0.2 241.3 11.6
2002-12-13 09:11:44 51°9.121 2°37.209 206.2 0.2 233.5 11.5
2002-12-13 09:11:49 51°9.121 2°37.209 205.2 0.2 223.9 11.6
2002-12-13 09:11:53 51°9.121 2°37.209 204.2 0.2 217.1 11.6
2002-12-13 09:11:59 51°9.121 2°37.208 203 0.2 215.3 11.6
2002-12-13 09:12:04 51°9.121 2°37.208 202 0.2 223.1 11.6
2002-12-13 09:12:09 51°9.12 2°37.208 201 0.2 211 11.6
2002-12-13 09:12:14 51°9.12 2°37.208 200 0.2 210.7 11.6
2002-12-13 09:12:19 51°9.12 2°37.208 199 0.2 203.9 11.6
2002-12-13 09:12:23 51°9.12 2°37.207 198 0.2 205.8 11.6
2002-12-13 09:12:29 51°9.119 2°37.207 197.2 0.2 203.1 11.6
2002-12-13 09:12:34 51°9.119 2°37.208 196 0.2 205.2 11.5
2002-12-13 09:12:39 51°9.119 2°37.207 195.2 0.2 207 11.5
2002-12-13 09:12:44 51°9.118 2°37.207 194.2 0.3 197.3 11.5
2002-12-13 09:12:49 51°9.118 2°37.207 193.2 0.3 195.5 11.5
2002-12-13 09:12:54 51°9.117 2°37.207 192.5 0.3 195.1 11.5
2002-12-13 09:12:59 51°9.117 2°37.206 191.8 0.3 195 11.5
2002-12-13 09:13:04 51°9.117 2°37.206 191.3 0.3 190 11.5
2002-12-13 09:13:09 51°9.116 2°37.206 191 0.3 190.5 11.5
2002-12-13 09:13:13 51°9.116 2°37.206 190.7 0.3 190.5 11.5
2002-12-13 09:13:19 51°9.115 2°37.206 190 0.4 186.5 11.5
2002-12-13 09:13:24 51°9.115 2°37.206 189.3 0.3 190.8 11.5
2002-12-13 09:13:29 51°9.114 2°37.205 188.7 0.4 191.1 11.5
2002-12-13 09:13:33 51°9.114 2°37.205 188.2 0.4 189.7 11.5
2002-12-13 09:13:39 51°9.113 2°37.205 187.5 0.4 187.5 11.5
2002-12-13 09:13:44 51°9.112 2°37.205 187.3 0.4 188.9 11.5
2002-12-13 09:13:49 51°9.112 2°37.205 187.2 0.4 184.3 11.5
2002-12-13 09:13:54 51°9.111 2°37.205 187 0.4 185 11.5
2002-12-13 09:13:59 51°9.11 2°37.205 187.2 0.5 183.9 11.5
2002-12-13 09:14:04 51°9.11 2°37.205 187.5 0.6 185.1 11.5
2002-12-13 09:14:09 51°9.108 2°37.205 188.5 0.7 183.9 11.4
2002-12-13 09:14:14 51°9.107 2°37.204 190.2 1 184.4 11.4
2002-12-13 09:14:19 51°9.105 2°37.204 192 1.3 186.6 11.4
2002-12-13 09:14:24 51°9.102 2°37.203 194.5 1.6 189.8 11.3
2002-12-13 09:14:29 51°9.099 2°37.202 197.7 1.9 193.3 11.4
2002-12-13 09:14:34 51°9.096 2°37.201 200.8 2.1 196.6 11.3
2002-12-13 09:14:39 51°9.093 2°37.199 204.2 2.3 198.9 11.3
2002-12-13 09:14:43 51°9.091 2°37.197 207.8 2.5 201.7 11.3
2002-12-13 09:14:49 51°9.087 2°37.194 211.7 2.6 205.9 11.3
2002-12-13 09:14:54 51°9.083 2°37.191 215.7 2.8 208.9 10.9
2002-12-13 09:14:59 51°9.08 2°37.187 219.5 3 213.5 11.2
2002-12-13 09:15:04 51°9.077 2°37.182 223.8 3.1 218.4 11.2
2002-12-13 09:15:09 51°9.074 2°37.178 228 3.1 222.2 11.2
2002-12-13 09:15:13 51°9.071 2°37.174 231.2 3 224.5 11.2
2002-12-13 09:15:19 51°9.068 2°37.168 234.2 3 228.1 11.2
2002-12-13 09:15:21 51°9.067 2°37.166 237 2.9 231.7 11.1
2002-12-13 09:15:29 51°9.064 2°37.158 239.7 2.8 234.9 11.1
2002-12-13 09:15:34 51°9.062 2°37.152 242 2.7 237.5 11.2
2002-12-13 09:15:39 51°9.06 2°37.147 244.7 2.7 240.8 11
2002-12-13 09:15:44 51°9.059 2°37.142 247.2 2.7 243.9 11.1
2002-12-13 09:15:49 51°9.057 2°37.137 249.2 2.6 246.9 11
2002-12-13 09:15:54 51°9.056 2°37.131 251.5 2.5 248.8 11.1
2002-12-13 09:15:57 51°9.055 2°37.128 253.8 2.5 251 11.1
2002-12-13 09:16:05 51°9.054 2°37.12 256.2 2.5 253.3 11.1
2002-12-13 09:16:09 51°9.053 2°37.116 258.2 2.5 256.4 11.1
2002-12-13 09:16:14 51°9.052 2°37.11 260.5 2.4 258.9 11.1
2002-12-13 09:16:19 51°9.052 2°37.105 262.7 2.4 260.6 11.1
2002-12-13 09:16:24 51°9.051 2°37.1 265 2.4 261.5 11.1
2002-12-13 09:16:29 51°9.051 2°37.095 266.8 2.4 264.3 11.1
2002-12-13 09:16:33 51°9.051 2°37.091 269 2.3 267.6 11.1
2002-12-13 09:16:39 51°9.051 2°37.084 271.5 2.3 269.6 11.1
2002-12-13 09:16:43 51°9.051 2°37.08 273.7 2.3 271.5 11.1
2002-12-13 09:16:49 51°9.052 2°37.074 275.7 2.3 275 11.1
2002-12-13 09:16:53 51°9.052 2°37.071 278 2.3 276.9 11.1
2002-12-13 09:16:58 51°9.053 2°37.065 280 2.3 278.5 11.1
2002-12-13 09:17:02 51°9.053 2°37.062 282.3 2.3 281 11.1
2002-12-13 09:17:09 51°9.054 2°37.055 284.7 2.2 283.1 11.2
2002-12-13 09:17:14 51°9.056 2°37.051 286.8 2.2 286.4 11.1
2002-12-13 09:17:19 51°9.057 2°37.046 289 2.2 288.7 11.2
2002-12-13 09:17:24 51°9.057 2°37.042 291.5 2.2 289.7 11.2
2002-12-13 09:17:29 51°9.059 2°37.037 293.5 2.2 292.3 11.2
2002-12-13 09:17:34 51°9.06 2°37.033 295.5 2.2 295.2 11.2
2002-12-13 09:17:37 51°9.061 2°37.031 298 2.2 298.6 11.2
2002-12-13 09:17:43 51°9.063 2°37.026 300 2.1 301.3 11.2
2002-12-13 09:17:49 51°9.065 2°37.021 302 2.1 303.6 11.3
2002-12-13 09:17:54 51°9.066 2°37.017 304.5 2.1 305.6 11.3
2002-12-13 09:17:59 51°9.068 2°37.013 306.7 2.1 307.4 11.3
2002-12-13 09:18:04 51°9.07 2°37.01 308.8 2.1 307.9 11.4
2002-12-13 09:18:09 51°9.072 2°37.006 311.3 2.1 309.8 11.4
2002-12-13 09:18:14 51°9.074 2°37.003 313.3 2.1 313.2 11.4
2002-12-13 09:18:19 51°9.076 2°37 315.7 2.1 316.7 11.4
2002-12-13 09:18:24 51°9.078 2°36.997 317.8 2.1 318.8 11.5
2002-12-13 09:18:29 51°9.081 2°36.994 320 2.1 320.3 11.5
2002-12-13 09:18:34 51°9.083 2°36.991 322.2 2.1 322.1 11.5
2002-12-13 09:18:39 51°9.085 2°36.989 324.2 2.1 324.3 11.5
2002-12-13 09:18:43 51°9.087 2°36.987 326.2 2.1 327.5 11.6
2002-12-13 09:18:49 51°9.09 2°36.984 328.3 2.1 329.3 11.6
2002-12-13 09:18:54 51°9.093 2°36.982 330.3 2.1 331.3 11.7
2002-12-13 09:18:59 51°9.096 2°36.98 332.3 2.1 332.1 11.7
2002-12-13 09:19:02 51°9.097 2°36.979 334.3 2 334.1 11.7
2002-12-13 09:19:09 51°9.101 2°36.976 336.2 2 335.4 11.7
2002-12-13 09:19:14 51°9.103 2°36.975 338 2 337.3 11.7
2002-12-13 09:19:19 51°9.106 2°36.973 339.8 2 339.1 11.8
2002-12-13 09:19:24 51°9.108 2°36.972 341.8 1.9 340.8 11.8
2002-12-13 09:19:29 51°9.111 2°36.971 343.7 1.9 342.5 11.9
2002-12-13 09:19:34 51°9.114 2°36.969 345.7 2 344.8 11.9
2002-12-13 09:19:39 51°9.116 2°36.969 347.8 2 345.7 11.9
2002-12-13 09:19:43 51°9.119 2°36.968 349.7 2 347.6 12
2002-12-13 09:19:49 51°9.122 2°36.967 351.5 2 350 12
2002-12-13 09:19:53 51°9.124 2°36.967 353.5 2.1 351.2 12
2002-12-13 09:19:59 51°9.128 2°36.966 355.7 2.1 352.1 12.1
2002-12-13 09:20:04 51°9.13 2°36.966 357.7 2.1 354.5 12.1
2002-12-13 09:20:09 51°9.133 2°36.966 359.5 2.1 356.4 12.1
2002-12-13 09:20:14 51°9.136 2°36.966 1.5 2 358.4 12.2
2002-12-13 09:20:19 51°9.139 2°36.966 3.3 2 359.5 12.2
2002-12-13 09:20:22 51°9.14 2°36.966 5.3 2 1 12.2
2002-12-13 09:20:29 51°9.144 2°36.966 7.2 2 3.2 12.2
2002-12-13 09:20:34 51°9.147 2°36.967 9 2 5.3 12.3
2002-12-13 09:20:39 51°9.15 2°36.968 11 2 7.6 12.4
2002-12-13 09:20:44 51°9.153 2°36.968 12.8 2 8.9 12.4
2002-12-13 09:20:49 51°9.156 2°36.969 14.7 2 9.9 12.4
2002-12-13 09:20:54 51°9.158 2°36.97 16.7 2 11.1 12.4
2002-12-13 09:20:59 51°9.161 2°36.971 18.7 2 12.2 12.5
2002-12-13 09:21:02 51°9.163 2°36.972 20.5 2 14.5 12.5
2002-12-13 09:21:09 51°9.166 2°36.974 22.3 2 16.4 12.5
2002-12-13 09:21:13 51°9.169 2°36.975 24.2 2 17.7 12.6
2002-12-13 09:21:19 51°9.172 2°36.977 26 2.1 19 12.6
2002-12-13 09:21:25 51°9.176 2°36.979 27.8 2.1 20.3 12.6
2002-12-13 09:21:29 51°9.178 2°36.98 29.5 2.1 21.8 12.7
2002-12-13 09:21:34 51°9.18 2°36.982 31.2 2.1 23.7 12.7
2002-12-13 09:21:38 51°9.183 2°36.984 33.2 2.1 24.7 12.7
2002-12-13 09:21:44 51°9.186 2°36.987 35.2 2.1 26.6 12.7
2002-12-13 09:21:49 51°9.188 2°36.989 36.8 2.1 28.9 12.8
2002-12-13 09:21:54 51°9.19 2°36.991 38.5 2.1 30.1 12.7
2002-12-13 09:21:59 51°9.193 2°36.994 40.5 2.1 31.4 12.7
2002-12-13 09:22:03 51°9.195 2°36.996 42.2 2.1 33.2 12.8
2002-12-13 09:22:09 51°9.198 2°36.999 44.2 2 35.3 12.8
2002-12-13 09:22:14 51°9.2 2°37.002 45.8 2 36.7 12.8
2002-12-13 09:22:17 51°9.202 2°37.004 47.5 2 38.1 12.9
2002-12-13 09:22:24 51°9.205 2°37.008 49.3 2.1 38.5 12.9
2002-12-13 09:22:29 51°9.207 2°37.011 51 2.1 39.7 12.9
2002-12-13 09:22:34 51°9.209 2°37.014 52.8 2.1 41.2 12.9
2002-12-13 09:22:39 51°9.211 2°37.017 54.5 2 43.8 13
2002-12-13 09:22:44 51°9.213 2°37.02 56.2 2 44.5 12.9
2002-12-13 09:22:49 51°9.215 2°37.023 58 2 46.4 13
2002-12-13 09:22:53 51°9.217 2°37.026 59.5 2 48.4 13
2002-12-13 09:22:59 51°9.219 2°37.03 61.3 2 49.7 13
2002-12-13 09:23:01 51°9.22 2°37.032 63 2 50.5 13
2002-12-13 09:23:09 51°9.222 2°37.037 64.8 2 51.4 12.8
2002-12-13 09:23:14 51°9.224 2°37.041 66.5 2 52.4 13
2002-12-13 09:23:19 51°9.225 2°37.044 68.3 2 53.9 12.8
2002-12-13 09:23:23 51°9.226 2°37.047 70 2 56.4 13
2002-12-13 09:23:29 51°9.228 2°37.051 71.7 2 57.3 13
2002-12-13 09:23:34 51°9.229 2°37.055 73.5 2 59.2 13
2002-12-13 09:23:39 51°9.231 2°37.059 75.2 2 60.8 13
2002-12-13 09:23:44 51°9.232 2°37.062 77 1.9 61.4 13
2002-12-13 09:23:49 51°9.233 2°37.066 78.7 1.9 63.2 13
2002-12-13 09:23:54 51°9.234 2°37.071 80.2 2 64.6 13
2002-12-13 09:23:59 51°9.236 2°37.074 81.8 2 66 13
2002-12-13 09:24:03 51°9.236 2°37.077 83.7 1.9 67.3 12.9
2002-12-13 09:24:09 51°9.238 2°37.082 85.3 1.9 67.8 12.9
2002-12-13 09:24:13 51°9.238 2°37.085 87.2 1.9 69.4 12.8
2002-12-13 09:24:19 51°9.24 2°37.09 89 1.9 70.5 13
2002-12-13 09:24:23 51°9.24 2°37.093 90.8 1.9 73.3 12.8
2002-12-13 09:24:29 51°9.241 2°37.098 92.5 1.9 75.6 12.9
2002-12-13 09:24:34 51°9.241 2°37.102 94.3 1.8 76.8 13
2002-12-13 09:24:39 51°9.242 2°37.106 96.3 1.8 76.4 13
2002-12-13 09:24:43 51°9.242 2°37.109 98.3 1.8 78.2 12.9
2002-12-13 09:24:49 51°9.242 2°37.114 99.3 1.8 80.2 12.9
2002-12-13 09:24:54 51°9.243 2°37.118 100.2 1.9 81.4 12.8
2002-12-13 09:24:59 51°9.243 2°37.123 99.8 2 82.1 12.9
2002-12-13 09:25:05 51°9.243 2°37.129 98.5 2.2 83.4 12.7
2002-12-13 09:25:09 51°9.244 2°37.134 96.2 2.4 83 12.7
2002-12-13 09:25:14 51°9.244 2°37.14 92.7 2.7 82.2 12.9
2002-12-13 09:25:19 51°9.245 2°37.146 89 2.9 80.1 12.9
2002-12-13 09:25:24 51°9.246 2°37.153 84.8 3.1 76.7 12.8
2002-12-13 09:25:29 51°9.249 2°37.161 80.7 3.4 72.8 12.9
2002-12-13 09:25:34 51°9.251 2°37.169 75.5 3.9 69.6 12.8
2002-12-13 09:25:39 51°9.254 2°37.178 69 4.4 64.3 12.9
2002-12-13 09:25:44 51°9.258 2°37.188 63 4.9 58.6 12.9
2002-12-13 09:25:49 51°9.263 2°37.197 55.8 5.3 52.4 12.9
2002-12-13 09:25:54 51°9.269 2°37.205 49 5.6 46.1 13
2002-12-13 09:25:59 51°9.276 2°37.213 42 5.9 39.7 13
2002-12-13 09:26:04 51°9.284 2°37.22 35.3 6.1 33.2 13
2002-12-13 09:26:09 51°9.292 2°37.226 28.7 6.4 26.8 13.1
2002-12-13 09:26:14 51°9.301 2°37.23 21.5 6.6 20.2 13.2
2002-12-13 09:26:19 51°9.31 2°37.232 14.2 6.7 13.3 13.3
2002-12-13 09:26:23 51°9.318 2°37.233 7 6.7 6.3 12.7
2002-12-13 09:26:29 51°9.329 2°37.231   6.8 359.2 13.5
2002-12-13 09:26:34 51°9.339 2°37.228 352.7 6.9 352.2 13.5
2002-12-13 09:26:39 51°9.348 2°37.223 345.2 7 346.5 13.8
2002-12-13 09:26:44 51°9.356 2°37.216 337.5 7 337.6 13.9
2002-12-13 09:26:49 51°9.364 2°37.207 330.2 6.9 330.1 13.8
2002-12-13 09:26:54 51°9.371 2°37.197 321.5 6.9 324.3 14.1
2002-12-13 09:26:59 51°9.377 2°37.186 311.8 6.6 315.9 14.3
2002-12-13 09:27:04 51°9.381 2°37.174 302.5 6.4 304.7 14.4
2002-12-13 09:27:09 51°9.384 2°37.162 292.8 6.2 295.3 14.5
2002-12-13 09:27:14 51°9.385 2°37.149 283.7 6 285.9 14.6
2002-12-13 09:27:19 51°9.386 2°37.136 274 5.9 278.3 14.6
2002-12-13 09:27:23 51°9.385 2°37.125 265 5.9 267.7 14.8
2002-12-13 09:27:29 51°9.382 2°37.11 259 6.1 259.6 14.6
2002-12-13 09:27:33 51°9.381 2°37.098 256 6.3 255.9 14.9
2002-12-13 09:27:39 51°9.377 2°37.082 252.8 6.6 253 14.7
2002-12-13 09:27:44 51°9.374 2°37.067 250.2 6.9 249.8 14.6
2002-12-13 09:27:49 51°9.369 2°37.053 248.3 7.1 247.1 14.9
2002-12-13 09:27:54 51°9.365 2°37.038 247 7.3 245.7 14.8
2002-12-13 09:27:59 51°9.36 2°37.022 245.5 7.6 244.5 15
2002-12-13 09:28:04 51°9.355 2°37.005 244.8 8.2 243 14.9
2002-12-13 09:28:09 51°9.348 2°36.987 243.8 8.9 241.5 14.8
2002-12-13 09:28:14 51°9.342 2°36.968 243.7 9.5 241.1 14.7
2002-12-13 09:28:19 51°9.334 2°36.947 243.2 10.3 240.3 14.8
2002-12-13 09:28:23 51°9.328 2°36.929 243.3 11.1 240.6 14.7
2002-12-13 09:28:29 51°9.318 2°36.902 243.7 11.7 240.2 14.7
2002-12-13 09:28:34 51°9.31 2°36.878 244.8 12.2 241 14.5
2002-12-13 09:28:37 51°9.305 2°36.863 245.2 12.5 241.8 14.8
2002-12-13 09:28:43 51°9.295 2°36.834 245.2 12.7 241.8 14.8
2002-12-13 09:28:49 51°9.285 2°36.803 246.3 12.9 242.3 14.8
2002-12-13 09:28:54 51°9.277 2°36.777 246.3 13 243.1 14.5
2002-12-13 09:28:59 51°9.269 2°36.752 246.2 13.1 242.9 14.5
2002-12-13 09:29:02 51°9.264 2°36.736 246 13.2 242.9 14.9
2002-12-13 09:29:09 51°9.252 2°36.7 246.2 13.3 242.7 14.8
2002-12-13 09:29:14 51°9.243 2°36.673 246.8 13.4 243 14.8
2002-12-13 09:29:18 51°9.237 2°36.652 246.5 13.4 243.1 14.8
2002-12-13 09:29:24 51°9.227 2°36.62 247.2 13.5 243.7 14.7
2002-12-13 09:29:29 51°9.219 2°36.593 247.5 13.5 243.8 15
2002-12-13 09:29:34 51°9.211 2°36.566 247.2 13.5 244.2 14.9
2002-12-13 09:29:39 51°9.203 2°36.54 247.7 13.5 244.1 15
2002-12-13 09:29:42 51°9.198 2°36.523 247.5 13.5 244.5 15
2002-12-13 09:29:49 51°9.186 2°36.486 247.2 13.5 244 15
2002-12-13 09:29:54 51°9.178 2°36.459 247.2 13.5 243.9 15.1
2002-12-13 09:29:59 51°9.17 2°36.432 247.3 13.6 244 14.9
2002-12-13 09:30:04 51°9.162 2°36.405 247.2 13.6 244.1 15
2002-12-13 09:30:09 51°9.154 2°36.378 247.7 13.6 244.4 14.6
2002-12-13 09:30:14 51°9.145 2°36.351 247.5 13.6 244.3 15.2
2002-12-13 09:30:17 51°9.14 2°36.335 247 13.6 244.1 14.8
2002-12-13 09:30:24 51°9.129 2°36.297 246.8 13.6 243.8 15
2002-12-13 09:30:29 51°9.12 2°36.27 247 13.6 243.7 15.3
2002-12-13 09:30:34 51°9.112 2°36.243 247.7 13.6 244.1 15.1
2002-12-13 09:30:39 51°9.104 2°36.217 247.3 13.6 243.9 15.2
2002-12-13 09:30:43 51°9.098 2°36.195 247.2 13.6 244 15.2
2002-12-13 09:30:49 51°9.087 2°36.163 247 13.6 243.5 15.3
2002-12-13 09:30:54 51°9.08 2°36.136 247.2 13.6 244.2 15.3
2002-12-13 09:30:59 51°9.071 2°36.11 246.8 13.6 243.7 15.3
2002-12-13 09:31:04 51°9.063 2°36.082 247 13.6 244.1 15.3
2002-12-13 09:31:09 51°9.055 2°36.055 247.5 13.6 243.9 15.3
2002-12-13 09:31:14 51°9.047 2°36.028 247.5 13.6 244.7 15.3
2002-12-13 09:31:19 51°9.039 2°36.001 247.8 13.7 244.6 15.3
2002-12-13 09:31:24 51°9.031 2°35.973 248.5 13.7 245.5 15.5
2002-12-13 09:31:29 51°9.022 2°35.946 247.5 13.7 244.6 15.3
2002-12-13 09:31:34 51°9.015 2°35.919 248.5 13.7 245.4 15.1
2002-12-13 09:31:39 51°9.007 2°35.892 247.3 13.6 245.1 15.4
2002-12-13 09:31:44 51°8.999 2°35.865 247.3 13.6 244.6 15.4
2002-12-13 09:31:49 51°8.99 2°35.838 247.7 13.6 244.4 15.6
2002-12-13 09:31:54 51°8.982 2°35.811 247.3 13.6 244.7 15.2
2002-12-13 09:31:59 51°8.974 2°35.784 247.2 13.6 244.3 15.5
2002-12-13 09:32:04 51°8.966 2°35.756 247.5 13.7 244.5 15.7
2002-12-13 09:32:09 51°8.958 2°35.729 247.7 13.6 244.5 15.7
2002-12-13 09:32:14 51°8.95 2°35.702 247.2 13.6 244.4 15.6
2002-12-13 09:32:19 51°8.942 2°35.675 247.3 13.7 244.4 15.5
2002-12-13 09:32:23 51°8.935 2°35.653 247.3 13.6 244.6 15.5
2002-12-13 09:32:29 51°8.925 2°35.621 247.2 13.6 244.1 15.7
2002-12-13 09:32:34 51°8.917 2°35.593 247.5 13.6 244.5 15.7
2002-12-13 09:32:39 51°8.909 2°35.566 247.2 13.6 244.2 15.7
2002-12-13 09:32:44 51°8.901 2°35.539 247.3 13.6 244.5 15.7
2002-12-13 09:32:49 51°8.893 2°35.512 247.7 13.6 244.6 15.8
2002-12-13 09:32:54 51°8.885 2°35.485 247.8 13.7 245 15.6
2002-12-13 09:32:59 51°8.877 2°35.457 247.8 13.7 245 15.9
2002-12-13 09:33:04 51°8.869 2°35.43 247.8 13.7 244.8 15.9
2002-12-13 09:33:09 51°8.86 2°35.403 247.7 13.7 244.7 15.9
2002-12-13 09:33:14 51°8.852 2°35.375 247.3 13.7 244.3 16
2002-12-13 09:33:17 51°8.848 2°35.359 247.5 13.7 244.5 15.8
2002-12-13 09:33:23 51°8.838 2°35.326 247.2 13.7 244.5 16.1
2002-12-13 09:33:29 51°8.828 2°35.293 247.5 13.7 244.3 16.1
2002-12-13 09:33:34 51°8.82 2°35.266 247.8 13.7 244.8 16.1
2002-12-13 09:33:39 51°8.812 2°35.238 248 13.7 245 16
2002-12-13 09:33:44 51°8.804 2°35.211 248.5 13.7 245.5 16.1
2002-12-13 09:33:49 51°8.796 2°35.184 247.8 13.6 245.3 16.1
2002-12-13 09:33:54 51°8.788 2°35.157 247.7 13.6 244.7 16.1
2002-12-13 09:33:59 51°8.78 2°35.13 247.7 13.6 244.9 16.2
2002-12-13 09:34:04 51°8.772 2°35.103 246.8 13.6 244.1 16.2
2002-12-13 09:34:09 51°8.764 2°35.075 247.7 13.6 244.6 16.3
2002-12-13 09:34:13 51°8.757 2°35.054 247.7 13.6 244.7 16
2002-12-13 09:34:19 51°8.748 2°35.021 247.2 13.6 244.7 16.4
2002-12-13 09:34:23 51°8.741 2°34.999 247 13.6 244.3 16.3
2002-12-13 09:34:29 51°8.732 2°34.967 247.3 13.7 244.6 16.3
2002-12-13 09:34:33 51°8.725 2°34.945 247.7 13.7 244.6 16.5
2002-12-13 09:34:39 51°8.716 2°34.912 248 13.7 245.2 16.3
2002-12-13 09:34:44 51°8.708 2°34.885 247.5 13.7 244.8 16.5
2002-12-13 09:34:49 51°8.7 2°34.858 248 13.6 245.5 16.7
2002-12-13 09:34:54 51°8.692 2°34.83 248.2 13.7 245.5 16.7
2002-12-13 09:34:58 51°8.686 2°34.808 248.3 13.7 245.6 16.7
2002-12-13 09:35:04 51°8.676 2°34.776 247.8 13.7 245.2 16.6
2002-12-13 09:35:09 51°8.668 2°34.748 247.2 13.7 244.7 16.9
2002-12-13 09:35:14 51°8.66 2°34.721 247 13.7 244.3 17
2002-12-13 09:35:19 51°8.651 2°34.694 247 13.7 244.2 17
2002-12-13 09:35:22 51°8.646 2°34.678 247.2 13.7 244.4 17
2002-12-13 09:35:29 51°8.635 2°34.64 248.2 13.7 244.9 17
2002-12-13 09:35:34 51°8.628 2°34.612 248 13.7 245.4 17
2002-12-13 09:35:39 51°8.619 2°34.585 247.7 13.6 245 17.1
2002-12-13 09:35:44 51°8.611 2°34.558 247.7 13.7 245.2 17.1
2002-12-13 09:35:49 51°8.603 2°34.53 248 13.7 244.9 17.1
2002-12-13 09:35:54 51°8.595 2°34.503 247.5 13.6 244.9 17.1
2002-12-13 09:35:58 51°8.589 2°34.482 247 13.6 244.5 17
2002-12-13 09:36:04 51°8.579 2°34.45 247.3 13.6 244.6 17.3
2002-12-13 09:36:09 51°8.571 2°34.424 247.3 13.5 244.7 17.3
2002-12-13 09:36:14 51°8.563 2°34.397 247.5 13.5 244.8 17.3
2002-12-13 09:36:19 51°8.555 2°34.37 248.2 13.6 245.1 17.4
2002-12-13 09:36:22 51°8.55 2°34.353 247.8 13.6 245.4 17.4
2002-12-13 09:36:29 51°8.539 2°34.316 247.2 13.5 244.7 17.3
2002-12-13 09:36:34 51°8.531 2°34.289 247.8 13.6 244.8 17.5
2002-12-13 09:36:39 51°8.523 2°34.262 247.7 13.6 245 17.5
2002-12-13 09:36:44 51°8.515 2°34.234 247.7 13.6 244.7 17.6
2002-12-13 09:36:49 51°8.507 2°34.207 247.3 13.6 244.7 17.5
2002-12-13 09:36:54 51°8.499 2°34.18 247.8 13.6 244.9 17.6
2002-12-13 09:36:57 51°8.494 2°34.163 247.7 13.6 245.3 17.6
2002-12-13 09:37:04 51°8.483 2°34.125 247.5 13.6 244.9 17.6
2002-12-13 09:37:09 51°8.475 2°34.098 248 13.6 245.2 17.4
2002-12-13 09:37:14 51°8.467 2°34.071 247.5 13.5 244.7 17.6
2002-12-13 09:37:19 51°8.459 2°34.044 247.7 13.5 244.9 17.5
2002-12-13 09:37:23 51°8.452 2°34.023 248.2 13.5 244.7 17.4
2002-12-13 09:37:29 51°8.443 2°33.99 248.5 13.6 245 17.5
2002-12-13 09:37:33 51°8.436 2°33.968 248.5 13.6 245.4 17.6
2002-12-13 09:37:37 51°8.43 2°33.946 248.2 13.6 245.3 17.5
2002-12-13 09:37:44 51°8.419 2°33.908 248 13.5 245.5 17.5
2002-12-13 09:37:49 51°8.411 2°33.882 247.7 13.6 244.6 17.5
2002-12-13 09:37:54 51°8.403 2°33.854 247.8 13.7 245.1 17.6
2002-12-13 09:37:59 51°8.395 2°33.827 247.5 13.6 244.6 17.5
2002-12-13 09:38:03 51°8.389 2°33.806 247 13.6 244.3 17.6
2002-12-13 09:38:09 51°8.379 2°33.773 247.5 13.6 244.5 17.5
2002-12-13 09:38:14 51°8.371 2°33.746 247.7 13.7 244.7 17.5
2002-12-13 09:38:19 51°8.363 2°33.719 248.2 13.7 245.2 17.5
2002-12-13 09:38:24 51°8.355 2°33.692 248.7 13.7 245.5 17.4
2002-12-13 09:38:29 51°8.347 2°33.664 248.3 13.7 245.6 17.4
2002-12-13 09:38:34 51°8.339 2°33.636 248.2 13.7 245.4 17.5
2002-12-13 09:38:39 51°8.331 2°33.609 247.7 13.7 245 17.3
2002-12-13 09:38:44 51°8.323 2°33.583 247.5 13.6 244.8 17.5
2002-12-13 09:38:49 51°8.315 2°33.557 246.8 13.4 244.3 17.1
2002-12-13 09:38:53 51°8.309 2°33.536 247 13 244.4 17.4
2002-12-13 09:38:58 51°8.302 2°33.512 247.2 12.6 244.4 17.4
2002-12-13 09:39:04 51°8.294 2°33.484 247.5 11.7 244.7 17.4
2002-12-13 09:39:09 51°8.288 2°33.463 247.8 11 245.3 17.3
2002-12-13 09:39:14 51°8.282 2°33.443 248.2 10.4 245.3 17.4
2002-12-13 09:39:17 51°8.279 2°33.431 248.2 9.9 245.7 17.4
2002-12-13 09:39:25 51°8.27 2°33.402 248.2 9.4 245.7 17.5
2002-12-13 09:39:29 51°8.266 2°33.388 248.8 9.1 246.3 17.7
2002-12-13 09:39:34 51°8.262 2°33.371 248.3 8.7 246.2 17.4
2002-12-13 09:39:39 51°8.257 2°33.354 248.3 8.4 246.1 17.4
2002-12-13 09:39:44 51°8.253 2°33.338 247.8 8.1 246.3 17.5
2002-12-13 09:39:49 51°8.248 2°33.322 247.7 7.9 245.8 17.5
2002-12-13 09:39:54 51°8.244 2°33.307 247 7.7 245.7 17.5
2002-12-13 09:39:59 51°8.24 2°33.292 247 7.5 245.3 17.5
2002-12-13 09:40:04 51°8.235 2°33.278 246.7 7.4 244.7 17.5
2002-12-13 09:40:09 51°8.231 2°33.263 246.5 7.2 244.4 17.6
2002-12-13 09:40:13 51°8.228 2°33.252 246.3 7.1 244.2 17.6
2002-12-13 09:40:19 51°8.223 2°33.235 246.8 7 244.3 17.6
2002-12-13 09:40:23 51°8.219 2°33.225 246.7 6.9 244.2 17.4
2002-12-13 09:40:29 51°8.215 2°33.208 246.7 6.8 244.8 17.7
2002-12-13 09:40:33 51°8.211 2°33.198 247 6.7 244.4 17.4
2002-12-13 09:40:39 51°8.207 2°33.183 246.8 6.6 244.3 17.5
2002-12-13 09:40:44 51°8.203 2°33.17 246.8 6.5 244.4 17.3
2002-12-13 09:40:49 51°8.199 2°33.157 247.3 6.5 244.8 17.3
2002-12-13 09:40:54 51°8.195 2°33.144 247.3 6.4 244.4 17
2002-12-13 09:40:58 51°8.192 2°33.134 247.5 6.4 244.8 17.3
2002-12-13 09:41:04 51°8.187 2°33.119 247.7 6.3 244.4 16.5
2002-12-13 09:41:09 51°8.184 2°33.106 247.7 6.3 245 17.3
2002-12-13 09:41:14 51°8.18 2°33.094 247.3 6.2 244.8 17.1
2002-12-13 09:41:19 51°8.176 2°33.082 246.3 6.1 244.1 17.2
2002-12-13 09:41:22 51°8.174 2°33.076 244.5 5.9 242.6 17.2
2002-12-13 09:41:29 51°8.169 2°33.061 242 5.7 240.7 17.1
2002-12-13 09:41:34 51°8.164 2°33.051 238.3 5.5 237.7 17.1
2002-12-13 09:41:39 51°8.16 2°33.042 234.2 5.2 234 17.3
2002-12-13 09:41:44 51°8.155 2°33.035 228.3 4.9 228.5 17.2
2002-12-13 09:41:49 51°8.151 2°33.029 223.2 4.6 222.8 17.2
2002-12-13 09:41:54 51°8.146 2°33.024 217.5 4.4 218.2 17.2
2002-12-13 09:41:59 51°8.141 2°33.019 212.2 4.2 213.1 17.2
2002-12-13 09:42:04 51°8.136 2°33.016 207.5 4 206.4 17.2
2002-12-13 09:42:09 51°8.131 2°33.013 203.5 3.9 201.9 17.3
2002-12-13 09:42:14 51°8.126 2°33.01 200.2 3.9 198.6 17.3
2002-12-13 09:42:19 51°8.12 2°33.009 197.7 3.9 196.1 17.2
2002-12-13 09:42:22 51°8.117 2°33.008 196.2 3.8 193.2 17.3
2002-12-13 09:42:29 51°8.11 2°33.006 195.3 3.8 191.5 17.1
2002-12-13 09:42:34 51°8.105 2°33.003 194.8 3.7 190.5 17
2002-12-13 09:42:39 51°8.1 2°33.001 194.7 3.6 190.3 17
2002-12-13 09:42:44 51°8.095 2°33 194.7 3.5 189.8 16.9
2002-12-13 09:42:49 51°8.091 2°32.999 194.5 3.4 189.5 16.7
2002-12-13 09:42:53 51°8.088 2°32.998 194.2 3.4 189.5 16.6
2002-12-13 09:42:59 51°8.082 2°32.997 193.8 3.3 189.6 16.8
2002-12-13 09:43:04 51°8.078 2°32.995 193.5 3.2 189.3 16.7
2002-12-13 09:43:09 51°8.074 2°32.994 193.3 3.1 189.5 16.7
2002-12-13 09:43:13 51°8.071 2°32.993 193 2.9 190 16.7
2002-12-13 09:43:17 51°8.068 2°32.992 193 2.5 189.5 16.6
2002-12-13 09:43:22 51°8.065 2°32.991 193.3 2 190.8 16.5
2002-12-13 09:43:29 51°8.062 2°32.991 194.2 1.5 191.2 16.6
2002-12-13 09:43:34 51°8.062 2°32.99 194.7 0.9 197.5 16.6
2002-12-13 09:43:39 51°8.062 2°32.99 195.2 0.3 199.3 16.5
2002-12-13 09:43:44 51°8.062 2°32.99 196.3 0.2 241.2 16.6
2002-12-13 09:43:49 51°8.062 2°32.99 197.5 0.2 234.5 16.6
2002-12-13 09:43:54 51°8.062 2°32.989 198.5 0.3 232.9 16.6
2002-12-13 09:43:59 51°8.061 2°32.989 199.7 0.3 218.3 16.6
2002-12-13 09:44:04 51°8.061 2°32.988 200.7 0.3 229.2 16.6
2002-12-13 09:44:09 51°8.061 2°32.988 201.7 0.3 227.6 16.3
2002-12-13 09:44:14 51°8.06 2°32.987 202.3 0.4 230.1 16.6
2002-12-13 09:44:19 51°8.06 2°32.986 203.2 0.4 238 16.6
2002-12-13 09:44:24 51°8.06 2°32.985 203.8 0.4 247.6 16.7
2002-12-13 09:44:29 51°8.06 2°32.985 204.3 0.4 246 16.7
2002-12-13 09:44:33 51°8.059 2°32.984 204.8 0.4 237.9 16.6
2002-12-13 09:44:39 51°8.059 2°32.984 205.3 0.4 234 16.6
2002-12-13 09:44:45 51°8.059 2°32.982 206 0.4 238.8 16.6
2002-12-13 09:44:49 51°8.059 2°32.982 206.5 0.4 251.3 16.6
2002-12-13 09:44:53 51°8.059 2°32.981 207 0.4 250.2 16.4
2002-12-13 09:44:58 51°8.058 2°32.98 207.7 0.4 242.3 16.6
2002-12-13 09:45:02 51°8.058 2°32.979 208.2 0.4 247 16.6
2002-12-13 09:45:09 51°8.058 2°32.978 208.5 0.4 248.2 16.5
2002-12-13 09:45:14 51°8.058 2°32.977 208.8 0.5 249.1 16.5
2002-12-13 09:45:19 51°8.057 2°32.976 209 0.4 243.3 16.6
2002-12-13 09:45:24 51°8.057 2°32.975 209.5 0.5 240.6 16.6
2002-12-13 09:45:29 51°8.057 2°32.974 209.5 0.5 245 16.6
2002-12-13 09:45:34 51°8.057 2°32.973 209.7 0.5 250.8 16.5
2002-12-13 09:45:37 51°8.057 2°32.973 209.5 0.4 248.2 16.5
2002-12-13 09:45:43 51°8.057 2°32.972 209.3 0.5 244.3 16.4
2002-12-13 09:45:49 51°8.057 2°32.97 209.2 0.5 242 16.4
2002-12-13 09:45:54 51°8.057 2°32.969 208.8 0.5 250.4 16.5
2002-12-13 09:45:59 51°8.056 2°32.968 208.5 0.5 258.4 16.6
2002-12-13 09:46:04 51°8.056 2°32.968 208 0.4 255.6 16.3
2002-12-13 09:46:09 51°8.056 2°32.967 207.5 0.4 250.5 16.6
2002-12-13 09:46:14 51°8.056 2°32.966 207.2 0.5 252.1 16.4
2002-12-13 09:46:19 51°8.055 2°32.965 206.7 0.4 244.3 16.6
2002-12-13 09:46:25 51°8.055 2°32.964 206.3 0.5 239.9 16.6
2002-12-13 09:46:29 51°8.055 2°32.964 205.8 0.4 235.6 16.5
2002-12-13 09:46:34 51°8.055 2°32.962 205.5 0.4 244.7 16.7
2002-12-13 09:46:39 51°8.055 2°32.962 205.3 0.4 246.8 16.7
2002-12-13 09:46:44 51°8.054 2°32.961 205 0.4 247.9 16.6
2002-12-13 09:46:49 51°8.054 2°32.96 204.8 0.4 240.1 16.5
2002-12-13 09:46:54 51°8.054 2°32.959 204.7 0.4 240.7 16.6
2002-12-13 09:46:59 51°8.054 2°32.958 204.5 0.4 241.6 16.5
2002-12-13 09:47:04 51°8.054 2°32.958 204.3 0.4 243.6 16.5
2002-12-13 09:47:09 51°8.053 2°32.957 204.2 0.4 253.2 16.3
2002-12-13 09:47:14 51°8.053 2°32.956 204 0.4 256.2 16.5
2002-12-13 09:47:19 51°8.052 2°32.956 204 0.4 250.8 16.5
2002-12-13 09:47:22 51°8.052 2°32.955 204 0.4 233.9 16.4
2002-12-13 09:47:29 51°8.052 2°32.954 204 0.4 230.3 16.4
2002-12-13 09:47:34 51°8.052 2°32.953 203.8 0.4 238.6 16.6
2002-12-13 09:47:39 51°8.052 2°32.952 203.8 0.4 245.5 16.6
2002-12-13 09:47:42 51°8.052 2°32.952 204 0.4 246.3 16.6
2002-12-13 09:47:49 51°8.052 2°32.951 204 0.4 251.4 16.5
2002-12-13 09:47:54 51°8.052 2°32.95 204 0.4 253.4 16.6